Time;durP1;ratioP1;P1;durP2;ratioP2;P2;SDS_P1;SDS_P2;PMS_P1;PMS_P2;Temp;Humidity;BMP_temperature;BMP_pressure;BME280_temperature;BME280_humidity;BME280_pressure;Samples;Min_cycle;Max_cycle;Signal;HPM_P1;HPM_P2
2021/05/07 00:00:41;;;;;;;;;;;;;;;10.92;100.00;99753.61;1810596;79;20176;-75
2021/05/07 00:03:10;;;;;;;;;;;;;;;10.89;100.00;99760.77;1810578;79;20184;-76
2021/05/07 00:05:37;;;;;;;;;;;;;;;10.83;100.00;99768.23;1810523;79;20283;-74
2021/05/07 00:08:05;;;;;;;;;;;;;;;10.78;100.00;99763.38;1810663;79;20144;-74
2021/05/07 00:10:34;;;;;;;;;;;;;;;10.74;100.00;99760.67;1810439;79;20207;-74
2021/05/07 00:13:01;;;;;;;;;;;;;;;10.69;100.00;99764.42;1810877;79;20164;-75
2021/05/07 00:15:29;;;;;;;;;;;;;;;10.67;100.00;99772.39;1810695;79;20426;-74
2021/05/07 00:17:56;;;;;;;;;;;;;;;10.65;100.00;99784.73;1764554;79;20131;-75
2021/05/07 00:20:24;;;;;;;;;;;;;;;10.64;100.00;99790.66;1760207;80;20131;-74
2021/05/07 00:22:52;;;;;;;;;;;;;;;10.63;100.00;99790.84;1757892;80;20136;-74
2021/05/07 00:25:22;;;;;;;;;;;;;;;10.60;100.00;99791.18;1750697;82;20492;-74
2021/05/07 00:27:58;;;;;;;;;;;;;;;10.59;100.00;99792.22;1754693;82;20155;-75
2021/05/07 00:30:26;;;;;;;;;;;;;;;10.57;100.00;99792.88;1752338;82;20171;-76
2021/05/07 00:32:54;;;;;;;;;;;;;;;10.55;100.00;99793.57;1754663;82;20124;-75
2021/05/07 00:35:21;;;;;;;;;;;;;;;10.54;100.00;99790.03;1754494;81;20148;-74
2021/05/07 00:37:49;;;;;;;;;;;;;;;10.52;100.00;99797.48;1754508;82;20128;-75
2021/05/07 00:40:17;;;;;;;;;;;;;;;10.50;100.00;99794.13;1754441;82;20493;-75
2021/05/07 00:42:45;;;;;;;;;;;;;;;10.48;100.00;99797.48;1754540;82;20132;-75
2021/05/07 00:45:14;;;;;;;;;;;;;;;10.46;100.00;99811.69;1754371;81;20128;-74
2021/05/07 00:47:54;;;;;;;;;;;;;;;10.44;100.00;99813.73;1754467;82;20235;-75
2021/05/07 00:50:21;;;;;;;;;;;;;;;10.42;100.00;99815.77;1687364;85;20149;-74
2021/05/07 00:52:49;;;;;;;;;;;;;;;10.40;100.00;99807.84;1687192;84;20168;-75
2021/05/07 00:55:16;;;;;;;;;;;;;;;10.38;100.00;99810.39;1687104;85;20223;-75
2021/05/07 00:57:44;;;;;;;;;;;;;;;10.37;100.00;99819.51;1687321;85;20244;-75
2021/05/07 01:00:12;;;;;;;;;;;;;;;10.34;100.00;99818.02;1664549;85;20153;-77
2021/05/07 01:02:40;;;;;;;;;;;;;;;10.32;100.00;99823.23;1687448;85;20283;-75
2021/05/07 01:05:10;;;;;;;;;;;;;;;10.28;100.00;99820.02;1687308;85;20426;-75
2021/05/07 01:07:37;;;;;;;;;;;;;;;10.25;100.00;99828.46;1687376;85;20306;-74
2021/05/07 01:10:07;;;;;;;;;;;;;;;10.20;100.00;99824.95;1687416;85;20141;-75
2021/05/07 01:12:36;;;;;;;;;;;;;;;10.18;100.00;99828.83;1687357;85;20414;-77
2021/05/07 01:15:21;;;;;;;;;;;;;;;10.12;100.00;99822.78;1687212;85;20140;-74
2021/05/07 01:17:51;;;;;;;;;;;;;;;10.10;100.00;99827.52;1711941;84;20142;-75
2021/05/07 01:20:26;;;;;;;;;;;;;;;10.04;100.00;99833.11;1690727;84;20254;-74
2021/05/07 01:22:58;;;;;;;;;;;;;;;10.00;100.00;99834.45;1724007;82;20473;-75
2021/05/07 01:25:27;;;;;;;;;;;;;;;9.95;100.00;99837.69;1745996;82;20147;-73
2021/05/07 01:27:59;;;;;;;;;;;;;;;9.91;100.00;99840.89;1745840;82;20130;-74
2021/05/07 01:30:39;;;;;;;;;;;;;;;9.87;100.00;99844.44;1745893;82;20146;-73
2021/05/07 01:33:10;;;;;;;;;;;;;;;9.83;100.00;99849.34;1746006;82;20270;-73
2021/05/07 01:35:37;;;;;;;;;;;;;;;9.81;100.00;99848.67;1745794;82;20159;-74
2021/05/07 01:38:06;;;;;;;;;;;;;;;9.78;100.00;99847.66;1745934;82;20150;-74
2021/05/07 01:40:35;;;;;;;;;;;;;;;9.75;100.00;99849.34;1746064;82;20167;-73
2021/05/07 01:43:03;;;;;;;;;;;;;;;9.71;100.00;99849.36;1746034;82;20147;-75
2021/05/07 01:45:33;;;;;;;;;;;;;;;9.66;100.00;99847.67;1745791;82;20241;-73
2021/05/07 01:48:00;;;;;;;;;;;;;;;9.61;100.00;99845.47;1784691;79;20157;-74
2021/05/07 01:50:30;;;;;;;;;;;;;;;9.58;100.00;99850.36;1812402;79;20125;-74
2021/05/07 01:52:58;;;;;;;;;;;;;;;9.56;100.00;99859.14;1812441;79;20129;-74
2021/05/07 01:55:28;;;;;;;;;;;;;;;9.53;100.00;99860.85;1812321;79;20400;-75
2021/05/07 01:57:56;;;;;;;;;;;;;;;9.51;100.00;99858.31;1812620;79;20134;-74
2021/05/07 02:00:25;;;;;;;;;;;;;;;9.48;100.00;99862.69;1812512;79;20229;-75
2021/05/07 02:02:56;;;;;;;;;;;;;;;9.47;100.00;99869.09;1812246;79;20165;-75
2021/05/07 02:05:28;;;;;;;;;;;;;;;9.47;100.00;99870.44;1808598;79;20129;-75
2021/05/07 02:07:55;;;;;;;;;;;;;;;9.43;100.00;99869.93;1812586;79;20246;-74
2021/05/07 02:10:25;;;;;;;;;;;;;;;9.39;100.00;99869.94;1812418;79;20580;-75
2021/05/07 02:12:54;;;;;;;;;;;;;;;9.37;100.00;99873.83;1812402;79;20414;-74
2021/05/07 02:15:22;;;;;;;;;;;;;;;9.32;100.00;99879.72;1812392;79;20141;-75
2021/05/07 02:17:51;;;;;;;;;;;;;;;9.27;100.00;99882.06;1785814;79;20157;-74
2021/05/07 02:20:21;;;;;;;;;;;;;;;9.23;100.00;99880.72;1812726;79;20308;-75
2021/05/07 02:22:49;;;;;;;;;;;;;;;9.19;100.00;99884.26;1812066;79;20236;-74
2021/05/07 02:25:20;;;;;;;;;;;;;;;9.18;100.00;99892.00;1809397;79;20122;-75
2021/05/07 02:27:50;;;;;;;;;;;;;;;9.16;100.00;99887.80;1809413;79;20149;-74
2021/05/07 02:30:21;;;;;;;;;;;;;;;9.14;100.00;99901.44;1713659;84;20200;-74
2021/05/07 02:32:56;;;;;;;;;;;;;;;9.15;100.00;99898.23;1873343;76;20216;-74
2021/05/07 02:35:25;;;;;;;;;;;;;;;9.10;100.00;99904.11;1817907;79;20528;-75
2021/05/07 02:37:52;;;;;;;;;;;;;;;9.08;100.00;99908.83;1817394;79;20203;-75
2021/05/07 02:40:20;;;;;;;;;;;;;;;9.07;100.00;99916.08;1817373;79;20159;-74
2021/05/07 02:42:50;;;;;;;;;;;;;;;9.07;100.00;99921.48;1817079;79;20166;-74
2021/05/07 02:45:19;;;;;;;;;;;;;;;9.08;100.00;99923.18;1818733;79;20224;-73
2021/05/07 02:47:46;;;;;;;;;;;;;;;9.07;100.00;99930.92;1834443;78;20437;-72
2021/05/07 02:50:14;;;;;;;;;;;;;;;9.08;100.00;99938.02;1820086;77;20111;-74
2021/05/07 02:52:42;;;;;;;;;;;;;;;9.08;100.00;99939.84;1836116;77;20203;-75
2021/05/07 02:55:10;;;;;;;;;;;;;;;9.08;100.00;99942.55;1820422;79;20226;-74
2021/05/07 02:57:38;;;;;;;;;;;;;;;9.09;100.00;99941.55;1820163;79;20163;-74
2021/05/07 03:00:08;;;;;;;;;;;;;;;9.10;100.00;99944.09;1819613;79;20136;-75
2021/05/07 03:02:35;;;;;;;;;;;;;;;9.12;100.00;99945.27;1819838;79;20113;-73
2021/05/07 03:05:03;;;;;;;;;;;;;;;9.15;100.00;99945.44;1819938;79;20104;-74
2021/05/07 03:07:31;;;;;;;;;;;;;;;9.18;100.00;99954.56;1819988;78;20112;-75
2021/05/07 03:09:58;;;;;;;;;;;;;;;9.20;100.00;99954.72;1819857;79;20135;-75
2021/05/07 03:12:28;;;;;;;;;;;;;;;9.21;100.00;99958.28;1820045;79;20167;-74
2021/05/07 03:14:57;;;;;;;;;;;;;;;9.23;100.00;99964.36;1819894;79;20128;-74
2021/05/07 03:17:27;;;;;;;;;;;;;;;9.25;100.00;99965.87;1818220;79;20144;-76
2021/05/07 03:19:55;;;;;;;;;;;;;;;9.29;100.00;99971.78;1817349;79;20246;-75
2021/05/07 03:22:22;;;;;;;;;;;;;;;9.31;100.00;99971.97;1817584;79;20190;-75
2021/05/07 03:24:51;;;;;;;;;;;;;;;9.34;100.00;99974.83;1832933;78;20219;-76
2021/05/07 03:27:19;;;;;;;;;;;;;;;9.37;100.00;99983.95;1817404;79;20254;-76
2021/05/07 03:29:47;;;;;;;;;;;;;;;9.41;100.00;99991.22;1817509;79;20211;-75
2021/05/07 03:32:15;;;;;;;;;;;;;;;9.45;100.00;99986.66;1813486;78;20226;-75
2021/05/07 03:34:43;;;;;;;;;;;;;;;9.49;100.00;99989.86;1814211;79;20120;-76
2021/05/07 03:37:11;;;;;;;;;;;;;;;9.53;100.00;99986.36;1815173;79;20238;-77
2021/05/07 03:39:38;;;;;;;;;;;;;;;9.57;100.00;99992.59;1814719;79;20164;-76
2021/05/07 03:42:06;;;;;;;;;;;;;;;9.61;100.00;99990.41;1815162;79;20235;-77
2021/05/07 03:44:33;;;;;;;;;;;;;;;9.64;100.00;99987.38;1814176;79;20271;-75
2021/05/07 03:47:01;;;;;;;;;;;;;;;9.67;100.00;99984.36;1814261;79;20222;-77
2021/05/07 03:49:30;;;;;;;;;;;;;;;9.73;100.00;99992.29;1814238;79;20160;-73
2021/05/07 03:51:58;;;;;;;;;;;;;;;9.79;100.00;99988.42;1814142;79;20119;-72
2021/05/07 03:54:26;;;;;;;;;;;;;;;9.86;100.00;99993.49;1813890;78;20234;-73
2021/05/07 03:56:53;;;;;;;;;;;;;;;9.95;100.00;99999.75;1813728;79;20116;-73
2021/05/07 03:59:20;;;;;;;;;;;;;;;10.02;100.00;100000.77;1813777;79;20220;-73
2021/05/07 04:01:49;;;;;;;;;;;;;;;10.10;100.00;99999.91;1813836;79;20242;-72
2021/05/07 04:04:16;;;;;;;;;;;;;;;10.17;100.00;99994.67;1814028;79;20140;-73
2021/05/07 04:06:44;;;;;;;;;;;;;;;10.22;100.00;99983.69;1813667;78;20159;-73
2021/05/07 04:09:20;;;;;;;;;;;;;;;10.31;100.00;99987.75;1804214;79;20195;-72
2021/05/07 04:11:58;;;;;;;;;;;;;;;10.37;100.00;99991.97;1812336;79;20486;-72
2021/05/07 04:14:24;;;;;;;;;;;;;;;10.45;100.00;99989.27;1829304;78;20179;-73
2021/05/07 04:16:53;;;;;;;;;;;;;;;10.58;100.00;99991.95;1794133;79;20241;-72
2021/05/07 04:19:21;;;;;;;;;;;;;;;10.69;100.00;99990.73;1772827;81;20273;-73
2021/05/07 04:21:48;;;;;;;;;;;;;;;10.80;100.00;99987.16;1772920;80;20418;-74
2021/05/07 04:24:16;;;;;;;;;;;;;;;10.89;100.00;99982.58;1772489;81;20120;-73
2021/05/07 04:26:44;;;;;;;;;;;;;;;10.98;100.00;99984.73;1772572;80;20159;-73
2021/05/07 04:29:11;;;;;;;;;;;;;;;11.07;100.00;99984.20;1772836;80;20401;-74
2021/05/07 04:31:39;;;;;;;;;;;;;;;11.16;100.00;99983.97;1772517;80;20132;-73
2021/05/07 04:34:07;;;;;;;;;;;;;;;11.29;100.00;99990.16;1772495;81;20410;-74
2021/05/07 04:36:35;;;;;;;;;;;;;;;11.43;100.00;99990.45;1772720;80;20174;-73
2021/05/07 04:39:03;;;;;;;;;;;;;;;11.57;100.00;99986.45;1772513;80;20148;-73
2021/05/07 04:41:31;;;;;;;;;;;;;;;11.76;100.00;99992.44;1772425;80;20136;-73
2021/05/07 04:43:59;;;;;;;;;;;;;;;11.95;100.00;99983.00;1773063;80;20124;-73
2021/05/07 04:46:27;;;;;;;;;;;;;;;12.12;100.00;99979.13;1772478;81;20194;-73
2021/05/07 04:48:55;;;;;;;;;;;;;;;12.30;100.00;99971.19;1772482;80;20176;-72
2021/05/07 04:51:22;;;;;;;;;;;;;;;12.47;100.00;99967.81;1772574;80;20140;-73
2021/05/07 04:53:50;;;;;;;;;;;;;;;12.62;100.00;99965.94;1772500;80;20167;-73
2021/05/07 04:56:17;;;;;;;;;;;;;;;12.75;100.00;99962.59;1772714;80;20440;-73
2021/05/07 04:58:45;;;;;;;;;;;;;;;12.89;100.00;99973.09;1772446;81;20253;-73
2021/05/07 05:01:12;;;;;;;;;;;;;;;13.01;100.00;99968.04;1772632;81;20132;-72
2021/05/07 05:03:40;;;;;;;;;;;;;;;13.15;100.00;99971.77;1772872;80;20136;-73
2021/05/07 05:06:08;;;;;;;;;;;;;;;13.27;100.00;99975.16;1772692;81;20485;-72
2021/05/07 05:08:35;;;;;;;;;;;;;;;13.34;100.00;99971.20;1773029;80;20180;-73
2021/05/07 05:11:03;;;;;;;;;;;;;;;13.39;100.00;99964.69;1772709;80;20429;-72
2021/05/07 05:13:30;;;;;;;;;;;;;;;13.44;100.00;99962.77;1772560;81;20139;-72
2021/05/07 05:15:58;;;;;;;;;;;;;;;13.48;100.00;99968.97;1773609;80;20541;-72
2021/05/07 05:18:28;;;;;;;;;;;;;;;13.59;100.00;99963.55;1782416;80;20126;-70
2021/05/07 05:23:36;;;;;;;;;;;;;;;13.87;100.00;99955.99;1858282;77;20141;-73
2021/05/07 05:26:04;;;;;;;;;;;;;;;13.95;100.00;99955.87;1830908;78;20226;-72
2021/05/07 05:28:35;;;;;;;;;;;;;;;14.11;100.00;99953.39;1830724;78;20504;-75
2021/05/07 05:31:03;;;;;;;;;;;;;;;14.26;100.00;99954.66;1830764;78;20155;-71
2021/05/07 05:33:31;;;;;;;;;;;;;;;14.35;100.00;99960.79;1830983;78;20151;-79
2021/05/07 05:35:59;;;;;;;;;;;;;;;14.44;100.00;99956.34;1823750;78;20151;-73
2021/05/07 05:38:27;;;;;;;;;;;;;;;14.54;100.00;99957.38;1819692;78;20467;-75
2021/05/07 05:40:55;;;;;;;;;;;;;;;14.68;100.00;99958.33;1814197;79;20177;-74
2021/05/07 05:43:24;;;;;;;;;;;;;;;14.84;100.00;99956.30;1813607;79;20235;-73
2021/05/07 05:45:52;;;;;;;;;;;;;;;15.00;100.00;99960.91;1814663;79;20129;-71
2021/05/07 05:48:19;;;;;;;;;;;;;;;15.22;100.00;99962.69;1814043;79;20545;-72
2021/05/07 05:50:48;;;;;;;;;;;;;;;15.38;100.00;99956.87;1813583;79;20129;-74
2021/05/07 05:53:16;;;;;;;;;;;;;;;15.49;100.00;99963.11;1813474;79;20481;-73
2021/05/07 05:55:44;;;;;;;;;;;;;;;15.61;100.00;99958.41;1813879;79;20149;-75
2021/05/07 05:58:12;;;;;;;;;;;;;;;15.64;100.00;99956.11;1813742;79;20161;-75
2021/05/07 06:00:40;;;;;;;;;;;;;;;15.77;100.00;99960.77;1816582;77;20225;-71
2021/05/07 06:03:07;;;;;;;;;;;;;;;15.98;100.00;99958.92;1832899;77;20172;-73
2021/05/07 06:05:36;;;;;;;;;;;;;;;16.10;100.00;99954.53;1825140;77;20156;-72
2021/05/07 06:08:04;;;;;;;;;;;;;;;16.28;100.00;99953.89;1859995;77;20183;-72
2021/05/07 06:10:31;;;;;;;;;;;;;;;16.40;100.00;99944.02;1844778;77;20196;-73
2021/05/07 06:12:59;;;;;;;;;;;;;;;16.53;100.00;99949.14;1814283;78;20152;-72
2021/05/07 06:15:26;;;;;;;;;;;;;;;16.52;100.00;99942.86;1817877;78;20411;-73
2021/05/07 06:17:54;;;;;;;;;;;;;;;16.50;100.00;99953.13;1832132;77;20227;-76
2021/05/07 06:20:22;;;;;;;;;;;;;;;16.50;100.00;99950.39;1829091;78;20133;-75
2021/05/07 06:22:50;;;;;;;;;;;;;;;16.54;100.00;99959.00;1825399;78;20382;-75
2021/05/07 06:25:19;;;;;;;;;;;;;;;16.54;100.00;99956.27;1820852;79;20483;-74
2021/05/07 06:27:47;;;;;;;;;;;;;;;16.60;100.00;99960.36;1805195;79;20166;-75
2021/05/07 06:30:15;;;;;;;;;;;;;;;16.72;100.00;99954.27;1806004;79;20642;-79
2021/05/07 06:32:43;;;;;;;;;;;;;;;16.79;100.00;99960.55;1812551;79;20138;-76
2021/05/07 06:35:11;;;;;;;;;;;;;;;16.86;100.00;99955.41;1804500;79;20230;-75
2021/05/07 06:37:40;;;;;;;;;;;;;;;17.02;100.00;99956.82;1812700;79;20159;-77
2021/05/07 06:40:09;;;;;;;;;;;;;;;17.30;100.00;99966.60;1798003;79;20212;-73
2021/05/07 06:42:38;;;;;;;;;;;;;;;17.52;100.00;99964.92;1814802;79;20151;-75
2021/05/07 06:45:09;;;;;;;;;;;;;;;17.72;100.00;99965.62;1786456;79;20192;-76
2021/05/07 06:47:36;;;;;;;;;;;;;;;17.90;100.00;99965.44;1758362;81;20215;-77
2021/05/07 06:50:07;;;;;;;;;;;;;;;18.09;100.00;99970.47;1738533;81;20137;-73
2021/05/07 06:52:35;;;;;;;;;;;;;;;18.30;100.00;99963.77;1775306;81;20281;-78
2021/05/07 06:55:04;;;;;;;;;;;;;;;18.50;100.00;99965.81;1771199;81;20144;-75
2021/05/07 06:57:31;;;;;;;;;;;;;;;18.53;100.00;99958.50;1757444;82;20271;-73
2021/05/07 06:59:59;;;;;;;;;;;;;;;18.69;87.62;99952.14;1756036;82;20136;-78
2021/05/07 07:02:28;;;;;;;;;;;;;;;18.78;83.56;99946.13;1756878;82;20277;-76
2021/05/07 07:04:57;;;;;;;;;;;;;;;18.91;75.26;99948.44;1757223;80;20148;-76
2021/05/07 07:07:26;;;;;;;;;;;;;;;19.04;79.63;99942.82;1761375;80;20151;-73
2021/05/07 07:09:55;;;;;;;;;;;;;;;19.25;82.61;99946.99;1750950;82;20182;-75
2021/05/07 07:12:23;;;;;;;;;;;;;;;19.52;81.69;99942.52;1756093;82;20198;-73
2021/05/07 07:14:53;;;;;;;;;;;;;;;19.72;69.94;99944.97;1757305;81;20211;-71
2021/05/07 07:17:21;;;;;;;;;;;;;;;19.80;63.50;99946.59;1757998;81;20207;-74
2021/05/07 07:19:49;;;;;;;;;;;;;;;;;;1758510;80;20171;-73
2021/05/07 07:22:18;;;;;;;;;;;;;;;19.86;69.74;99953.33;1756337;80;20222;-75
2021/05/07 07:24:47;;;;;;;;;;;;;;;20.01;66.01;99958.91;1772494;80;20141;-75
2021/05/07 07:27:15;;;;;;;;;;;;;;;19.97;66.10;99965.41;1752031;82;20165;-77
2021/05/07 07:29:44;;;;;;;;;;;;;;;19.95;64.39;99960.69;1752290;81;20334;-73
2021/05/07 07:32:12;;;;;;;;;;;;;;;20.07;62.30;99957.98;1750855;80;20189;-72
2021/05/07 07:34:40;;;;;;;;;;;;;;;20.30;62.30;99955.81;1755832;82;20183;-72
2021/05/07 07:37:07;;;;;;;;;;;;;;;20.48;54.99;99959.80;1754104;82;20231;-71
2021/05/07 07:39:35;;;;;;;;;;;;;;;20.60;49.14;99961.73;1754631;81;20194;-75
2021/05/07 07:42:05;;;;;;;;;;;;;;;20.72;47.01;99959.86;1756260;82;20155;-80
2021/05/07 07:44:32;;;;;;;;;;;;;;;20.57;42.42;99957.54;1797863;79;20183;-77
2021/05/07 07:47:00;;;;;;;;;;;;;;;20.28;43.57;99957.41;1817466;79;20172;-75
2021/05/07 07:49:29;;;;;;;;;;;;;;;20.15;44.93;99955.42;1811911;77;20225;-76
2021/05/07 07:51:58;;;;;;;;;;;;;;;20.13;44.58;99958.40;1816057;77;20467;-76
2021/05/07 07:54:27;;;;;;;;;;;;;;;20.07;43.80;99967.05;1845032;77;20122;-77
2021/05/07 07:56:55;;;;;;;;;;;;;;;20.11;52.17;99957.80;1816082;79;20161;-78
2021/05/07 07:59:23;;;;;;;;;;;;;;;20.51;53.77;99953.02;1819906;79;20482;-76
2021/05/07 08:01:51;;;;;;;;;;;;;;;21.04;49.46;99951.21;1820772;77;20237;-78
2021/05/07 08:04:19;;;;;;;;;;;;;;;21.47;46.33;99951.28;1796323;79;20197;-75
2021/05/07 08:06:48;;;;;;;;;;;;;;;21.86;42.01;99949.25;1794337;80;20142;-75
2021/05/07 08:09:16;;;;;;;;;;;;;;;21.81;36.97;99947.23;1800843;79;20249;-72
2021/05/07 08:11:44;;;;;;;;;;;;;;;21.57;37.47;99947.91;1782223;79;20132;-71
2021/05/07 08:14:12;;;;;;;;;;;;;;;21.48;34.82;99949.36;1822383;78;20411;-73
2021/05/07 08:16:39;;;;;;;;;;;;;;;21.50;33.95;99950.80;1818929;78;20382;-75
2021/05/07 08:19:08;;;;;;;;;;;;;;;21.33;32.95;99953.44;1816190;79;20180;-74
2021/05/07 08:21:36;;;;;;;;;;;;;;;20.99;34.13;99961.55;1809243;79;20161;-73
2021/05/07 08:24:05;;;;;;;;;;;;;;;20.76;31.59;99961.04;1777758;79;20146;-76
2021/05/07 08:26:33;;;;;;;;;;;;;;;20.58;31.80;99960.59;1796025;79;20433;-74
2021/05/07 08:29:00;;;;;;;;;;;;;;;20.45;36.38;99959.45;1800279;79;20170;-76
2021/05/07 08:31:29;;;;;;;;;;;;;;;20.65;34.47;99959.14;1786198;79;20205;-75
2021/05/07 08:33:57;;;;;;;;;;;;;;;20.94;39.36;99964.72;1793663;79;20239;-80
2021/05/07 08:36:25;;;;;;;;;;;;;;;21.18;34.55;99966.35;1791269;79;20136;-74
2021/05/07 08:38:53;;;;;;;;;;;;;;;21.05;33.76;99970.73;1780451;79;20735;-76
2021/05/07 08:41:21;;;;;;;;;;;;;;;20.97;36.87;99972.50;1806941;79;20220;-78
2021/05/07 08:43:52;;;;;;;;;;;;;;;21.08;34.36;99977.13;1795286;79;20268;-76
2021/05/07 08:46:19;;;;;;;;;;;;;;;21.16;32.85;99971.27;1803195;79;20252;-76
2021/05/07 08:48:46;;;;;;;;;;;;;;;21.22;33.00;99979.08;1804722;79;20240;-82
2021/05/07 08:51:15;;;;;;;;;;;;;;;21.12;33.39;99978.30;1803592;79;20232;-78
2021/05/07 08:53:42;;;;;;;;;;;;;;;20.92;35.57;99984.20;1785267;79;20163;-77
2021/05/07 08:56:12;;;;;;;;;;;;;;;20.72;36.28;99979.09;1777618;79;20128;-76
2021/05/07 08:58:39;;;;;;;;;;;;;;;20.82;37.81;99982.59;1800847;79;20517;-77
2021/05/07 09:01:07;;;;;;;;;;;;;;;21.08;38.96;99981.25;1812166;78;20290;-80
2021/05/07 09:03:45;;;;;;;;;;;;;;;21.28;39.01;99977.27;1776978;79;20406;-77
2021/05/07 09:06:19;;;;;;;;;;;;;;;21.06;40.05;99980.66;1795987;79;20140;-80
2021/05/07 09:08:48;;;;;;;;;;;;;;;21.00;41.54;99980.23;1787848;79;20133;-77
2021/05/07 09:11:17;;;;;;;;;;;;;;;20.94;35.37;99981.22;1789833;79;20188;-75
2021/05/07 09:13:45;;;;;;;;;;;;;;;20.77;33.85;99972.86;1797609;79;20283;-78
2021/05/07 09:16:12;;;;;;;;;;;;;;;20.90;35.15;99974.54;1805012;79;20487;-76
2021/05/07 09:18:46;;;;;;;;;;;;;;;21.10;38.50;99966.72;1799186;78;20141;-77
2021/05/07 09:21:14;;;;;;;;;;;;;;;21.41;36.96;99963.24;1793815;79;20148;-76
2021/05/07 09:23:47;;;;;;;;;;;;;;;21.59;34.35;99965.00;1794125;79;20160;-79
2021/05/07 09:26:16;;;;;;;;;;;;;;;21.83;34.95;99962.13;1794194;79;20276;-80
2021/05/07 09:28:51;;;;;;;;;;;;;;;21.98;32.32;99969.29;1809029;79;20151;-80
2021/05/07 09:31:20;;;;;;;;;;;;;;;21.99;34.78;99972.32;1792213;79;20282;-79
2021/05/07 09:33:49;;;;;;;;;;;;;;;22.13;32.65;99964.06;1789279;80;20209;-79
2021/05/07 09:43:39;;;;;;;;;;;;;;;21.74;37.27;99970.80;1680511;83;20457;-73
2021/05/07 09:46:07;;;;;;;;;;;;;;;21.58;37.07;99962.80;1690735;84;20249;-76
2021/05/07 09:48:40;;;;;;;;;;;;;;;21.23;33.45;99978.01;1708055;83;20512;-76
2021/05/07 09:51:09;;;;;;;;;;;;;;;20.88;34.29;99994.02;1687475;83;20657;-74
2021/05/07 09:53:40;;;;;;;;;;;;;;;20.52;34.87;99993.13;1726459;83;20247;-75
2021/05/07 09:56:19;;;;;;;;;;;;;;;20.38;36.12;99998.55;1696434;82;20721;-76
2021/05/07 09:58:47;;;;;;;;;;;;;;;20.55;34.71;99994.03;1673825;83;20255;-75
2021/05/07 10:01:14;;;;;;;;;;;;;;;20.78;35.69;99999.27;1668127;84;20189;-74
2021/05/07 10:03:43;;;;;;;;;;;;;;;20.90;33.18;100004.22;1682257;84;20681;-74
2021/05/07 10:06:11;;;;;;;;;;;;;;;21.08;34.22;100001.04;1690002;83;20473;-77
2021/05/07 10:08:45;;;;;;;;;;;;;;;21.29;34.08;99997.64;1679458;84;20441;-79
2021/05/07 10:11:14;;;;;;;;;;;;;;;21.54;35.13;99986.91;1688175;83;20564;-77
2021/05/07 10:13:44;;;;;;;;;;;;;;;21.87;33.66;99990.81;1677405;83;20256;-81
2021/05/07 10:16:12;;;;;;;;;;;;;;;22.19;33.02;99982.88;1682178;83;20143;-78
2021/05/07 10:18:41;;;;;;;;;;;;;;;22.35;32.76;99982.62;1689756;84;20150;-82
2021/05/07 10:21:11;;;;;;;;;;;;;;;22.54;32.22;99987.31;1654715;84;20146;-77
2021/05/07 10:23:52;;;;;;;;;;;;;;;22.73;28.33;99998.38;1687861;84;20247;-79
2021/05/07 10:26:24;;;;;;;;;;;;;;;22.43;28.47;99986.31;1669157;84;20151;-81
2021/05/07 10:28:53;;;;;;;;;;;;;;;22.24;28.51;99984.34;1664790;86;20182;-79
2021/05/07 10:31:21;;;;;;;;;;;;;;;22.16;31.22;99970.42;1672105;85;20175;-80
2021/05/07 10:34:03;;;;;;;;;;;;;;;22.30;28.78;99971.52;1681227;85;20154;-79
2021/05/07 10:36:39;;;;;;;;;;;;;;;22.18;29.90;99969.63;1664742;84;20144;-81
2021/05/07 10:39:23;;;;;;;;;;;;;;;22.40;30.62;99970.31;1599972;88;20205;-80
2021/05/07 10:41:51;;;;;;;;;;;;;;;22.48;29.85;99969.05;1598088;88;20158;-79
2021/05/07 10:44:20;;;;;;;;;;;;;;;22.22;30.10;99969.13;1605375;89;20162;-77
2021/05/07 10:47:06;;;;;;;;;;;;;;;22.01;31.37;99966.05;1605624;88;20154;-75
2021/05/07 10:49:36;;;;;;;;;;;;;;;22.01;30.01;99959.17;1608716;88;20407;-76
2021/05/07 10:52:06;;;;;;;;;;;;;;;22.10;30.26;99956.84;1605456;89;20264;-73
2021/05/07 10:54:38;;;;;;;;;;;;;;;22.30;30.21;99950.30;1605454;89;20346;-72
2021/05/07 10:57:27;;;;;;;;;;;;;;;22.27;29.86;99955.48;1599216;89;20431;-74
2021/05/07 11:00:09;;;;;;;;;;;;;;;21.97;29.64;99951.09;1779435;79;20218;-72
2021/05/07 11:02:51;;;;;;;;;;;;;;;21.76;33.20;99954.02;1769950;80;20186;-71
2021/05/07 11:05:47;;;;;;;;;;;;;;;22.04;32.54;99957.27;1787911;80;20139;-74
2021/05/07 11:08:15;;;;;;;;;;;;;;;22.40;31.72;99948.27;1787033;80;20194;-74
2021/05/07 11:10:47;;;;;;;;;;;;;;;22.78;30.82;99953.51;1788577;80;20270;-74
2021/05/07 11:13:15;;;;;;;;;;;;;;;22.55;31.63;99960.06;1786646;80;20198;-75
2021/05/07 11:15:48;;;;;;;;;;;;;;;22.28;33.17;99957.16;1789979;80;20215;-73
2021/05/07 11:18:15;;;;;;;;;;;;;;;22.25;33.29;99947.98;1784841;80;20260;-72
2021/05/07 11:20:48;;;;;;;;;;;;;;;22.39;35.38;99945.22;1789291;80;20566;-72
2021/05/07 11:23:30;;;;;;;;;;;;;;;22.53;33.95;99948.46;1780877;80;20198;-71
2021/05/07 11:26:06;;;;;;;;;;;;;;;22.41;34.96;99946.34;1787520;80;20502;-73
2021/05/07 11:28:42;;;;;;;;;;;;;;;22.42;34.05;99944.72;1781129;80;20135;-74
2021/05/07 11:31:10;;;;;;;;;;;;;;;22.29;32.67;99941.77;1682360;85;20531;-73
2021/05/07 11:33:42;;;;;;;;;;;;;;;22.05;33.46;99941.61;1685101;85;20226;-75
2021/05/07 11:36:13;;;;;;;;;;;;;;;21.68;35.80;99941.50;1679213;85;20218;-74
2021/05/07 11:38:41;;;;;;;;;;;;;;;21.40;36.48;99940.94;1680741;85;20419;-77
2021/05/07 11:41:19;;;;;;;;;;;;;;;21.52;37.54;99939.00;1681546;85;20231;-75
2021/05/07 11:43:49;;;;;;;;;;;;;;;21.95;37.05;99934.00;1667930;85;20152;-79
2021/05/07 11:46:17;;;;;;;;;;;;;;;22.32;35.86;99940.42;1678744;85;20151;-75
2021/05/07 11:48:49;;;;;;;;;;;;;;;22.08;34.58;99933.69;1682787;85;20175;-77
2021/05/07 11:51:18;;;;;;;;;;;;;;;21.76;35.07;99926.50;1679430;85;20254;-76
2021/05/07 11:53:55;;;;;;;;;;;;;;;21.36;36.52;99930.14;1685376;85;20214;-75
2021/05/07 11:56:23;;;;;;;;;;;;;;;21.18;37.85;99928.41;1688943;85;20257;-75
2021/05/07 11:58:51;;;;;;;;;;;;;;;21.23;38.59;99927.14;1686995;84;20150;-75
2021/05/07 12:01:19;;;;;;;;;;;;;;;21.32;38.20;99915.19;1687795;84;20225;-76
2021/05/07 12:03:48;;;;;;;;;;;;;;;21.44;37.93;99929.73;1688670;85;20226;-76
2021/05/07 12:06:18;;;;;;;;;;;;;;;21.67;36.57;99918.36;1686204;85;20158;-76
2021/05/07 12:08:47;;;;;;;;;;;;;;;22.06;36.93;99911.59;1686225;85;20179;-75
2021/05/07 12:11:15;;;;;;;;;;;;;;;22.50;36.06;99909.83;1663166;85;20178;-75
2021/05/07 12:13:44;;;;;;;;;;;;;;;22.82;32.55;99910.55;1662239;85;20286;-77
2021/05/07 12:16:12;;;;;;;;;;;;;;;22.84;32.34;99914.44;1679265;85;20140;-78
2021/05/07 12:18:52;;;;;;;;;;;;;;;22.79;32.57;99908.33;1677058;85;20202;-76
2021/05/07 12:21:20;;;;;;;;;;;;;;;22.77;31.72;99898.11;1740725;80;20123;-77
2021/05/07 12:23:49;;;;;;;;;;;;;;;22.90;32.67;99897.72;1788835;80;20143;-78
2021/05/07 12:26:19;;;;;;;;;;;;;;;23.11;32.58;99892.50;1788351;80;20271;-77
2021/05/07 12:28:54;;;;;;;;;;;;;;;23.19;30.34;99899.47;1779803;80;20152;-79
2021/05/07 12:31:30;;;;;;;;;;;;;;;22.88;30.64;99905.41;1781026;80;20515;-76
2021/05/07 12:33:58;;;;;;;;;;;;;;;22.62;30.88;99909.73;1738765;81;20145;-78
2021/05/07 12:36:26;;;;;;;;;;;;;;;22.46;29.78;99899.04;1738295;82;20173;-76
2021/05/07 12:38:57;;;;;;;;;;;;;;;22.31;31.30;99896.05;1737800;82;20249;-75
2021/05/07 12:41:27;;;;;;;;;;;;;;;22.29;29.62;99888.59;1738545;82;20146;-75
2021/05/07 12:43:56;;;;;;;;;;;;;;;22.17;31.83;99903.81;1739121;82;20225;-73
2021/05/07 12:46:24;;;;;;;;;;;;;;;22.19;31.37;99896.13;1733101;82;20526;-75
2021/05/07 12:48:55;;;;;;;;;;;;;;;22.23;30.99;99897.84;1739910;82;20249;-73
2021/05/07 12:51:23;;;;;;;;;;;;;;;22.33;32.15;99893.91;1733213;82;20200;-76
2021/05/07 12:53:58;;;;;;;;;;;;;;;22.25;30.94;99887.41;1738806;81;20158;-77
2021/05/07 12:56:26;;;;;;;;;;;;;;;21.89;30.43;99900.05;1736279;82;20291;-73
2021/05/07 12:58:53;;;;;;;;;;;;;;;21.56;31.91;99890.66;1727250;80;20138;-74
2021/05/07 13:01:21;;;;;;;;;;;;;;;21.58;32.28;99885.77;1738100;80;20263;-73
2021/05/07 13:03:49;;;;;;;;;;;;;;;21.59;31.90;99876.41;1713945;81;20212;-74